Time;durP1;ratioP1;P1;durP2;ratioP2;P2;SDS_P1;SDS_P2;PMS_P1;PMS_P2;Temp;Humidity;BMP_temperature;BMP_pressure;BME280_temperature;BME280_humidity;BME280_pressure;Samples;Min_cycle;Max_cycle;Signal;HPM_P1;HPM_P2
2021/12/11 00:01:46;;;;;;;15.53;8.80;;;4.70;73.10;;;;;;5090092;28;20433;-70
2021/12/11 00:04:17;;;;;;;16.70;9.30;;;4.70;73.10;;;;;;5073503;28;20063;-70
2021/12/11 00:06:47;;;;;;;15.93;9.80;;;4.60;73.10;;;;;;5072718;28;20083;-70
2021/12/11 00:09:29;;;;;;;17.80;9.20;;;4.60;73.20;;;;;;5073286;28;20032;-70
2021/12/11 00:12:04;;;;;;;18.40;9.73;;;4.60;73.30;;;;;;5072849;28;20059;-70
2021/12/11 00:14:32;;;;;;;17.40;9.03;;;4.60;73.30;;;;;;5072905;28;20048;-71
2021/12/11 00:16:58;;;;;;;15.13;8.90;;;4.60;73.30;;;;;;5072982;28;20059;-70
2021/12/11 00:19:27;;;;;;;14.33;9.03;;;4.60;73.30;;;;;;5074230;28;20036;-70
2021/12/11 00:22:01;;;;;;;15.67;8.97;;;4.60;73.30;;;;;;5056107;28;20024;-70
2021/12/11 00:24:30;;;;;;;15.50;9.60;;;4.60;73.30;;;;;;5054710;28;20029;-71
2021/12/11 00:27:00;;;;;;;19.63;11.03;;;4.60;73.30;;;;;;5078709;28;20446;-71
2021/12/11 00:29:27;;;;;;;17.80;10.23;;;4.60;73.30;;;;;;5073187;28;20426;-71
2021/12/11 00:31:58;;;;;;;19.03;11.27;;;4.60;73.30;;;;;;5076273;28;20025;-70
2021/12/11 00:34:24;;;;;;;15.70;10.13;;;4.60;73.30;;;;;;5073290;28;20025;-70
2021/12/11 00:37:04;;;;;;;17.17;10.57;;;4.50;73.20;;;;;;5072445;28;20116;-70
2021/12/11 00:39:31;;;;;;;22.50;10.83;;;4.50;73.20;;;;;;5090288;28;20024;-70
2021/12/11 00:42:00;;;;;;;17.37;10.13;;;4.50;73.30;;;;;;5069863;28;20032;-71
2021/12/11 00:44:45;;;;;;;16.73;10.30;;;4.50;73.30;;;;;;5073048;28;20071;-70
2021/12/11 00:47:26;;;;;;;19.15;10.30;;;4.50;73.30;;;;;;5077999;28;20051;-70
2021/12/11 00:50:04;;;;;;;17.83;10.93;;;4.40;73.30;;;;;;5072882;28;20017;-70
2021/12/11 00:52:40;;;;;;;18.53;10.50;;;4.40;73.30;;;;;;5073418;28;20039;-70
2021/12/11 00:55:22;;;;;;;16.37;10.67;;;4.40;73.30;;;;;;5072675;28;20029;-70
2021/12/11 00:57:59;;;;;;;16.08;11.10;;;4.40;73.30;;;;;;5052585;28;20128;-71
2021/12/11 01:00:25;;;;;;;21.50;11.83;;;4.40;73.40;;;;;;5052823;28;20171;-70
2021/12/11 01:02:52;;;;;;;21.40;11.97;;;4.40;73.40;;;;;;5066551;28;20079;-70
2021/12/11 01:05:19;;;;;;;21.13;12.43;;;4.40;73.40;;;;;;5055863;28;20369;-70
2021/12/11 01:07:45;;;;;;;16.87;12.10;;;4.40;73.40;;;;;;5072274;28;20032;-70
2021/12/11 01:10:23;;;;;;;21.07;12.20;;;4.40;73.50;;;;;;5072688;28;20024;-70
2021/12/11 01:12:56;;;;;;;19.60;11.93;;;4.40;73.50;;;;;;5071824;28;20033;-70
2021/12/11 01:15:47;;;;;;;20.47;12.00;;;4.40;73.50;;;;;;5069573;28;20040;-70
2021/12/11 01:18:22;;;;;;;18.93;12.50;;;4.40;73.50;;;;;;5070198;28;20033;-71
2021/12/11 01:21:05;;;;;;;20.70;12.20;;;4.40;73.70;;;;;;5072797;28;20093;-71
2021/12/11 01:23:56;;;;;;;21.20;12.40;;;4.40;73.70;;;;;;5072891;28;20066;-71
2021/12/11 01:26:21;;;;;;;22.33;12.67;;;4.40;73.70;;;;;;5062988;28;20086;-70
2021/12/11 01:28:48;;;;;;;20.73;12.07;;;4.40;73.70;;;;;;5076224;28;20191;-70
2021/12/11 01:31:16;;;;;;;19.87;12.07;;;4.40;73.80;;;;;;5076349;28;20060;-70
2021/12/11 01:33:42;;;;;;;18.80;13.03;;;4.40;73.80;;;;;;5076831;28;20038;-71
2021/12/11 01:36:09;;;;;;;19.57;12.50;;;4.40;73.80;;;;;;5077144;28;20028;-70
2021/12/11 01:38:36;;;;;;;19.97;12.70;;;4.40;73.80;;;;;;5076955;28;20357;-70
2021/12/11 01:41:07;;;;;;;20.33;12.97;;;4.50;73.90;;;;;;5077239;28;20066;-70
2021/12/11 01:43:35;;;;;;;21.63;12.05;;;4.50;74.00;;;;;;5075572;28;20040;-70
2021/12/11 01:46:02;;;;;;;19.10;12.63;;;4.50;74.00;;;;;;5078754;28;20464;-70
2021/12/11 01:48:31;;;;;;;22.63;12.10;;;4.50;74.00;;;;;;5080804;28;20032;-70
2021/12/11 01:51:06;;;;;;;20.23;12.67;;;4.50;74.00;;;;;;5076873;28;20355;-71
2021/12/11 01:53:37;;;;;;;18.03;12.40;;;4.50;74.00;;;;;;5076544;28;20035;-70
2021/12/11 01:56:12;;;;;;;18.67;12.13;;;4.50;74.10;;;;;;5076376;28;20039;-70
2021/12/11 01:58:43;;;;;;;22.63;12.40;;;4.50;74.10;;;;;;5076446;28;20045;-70
2021/12/11 02:01:16;;;;;;;22.15;12.30;;;4.50;74.10;;;;;;5076922;28;20063;-70
2021/12/11 02:03:43;;;;;;;21.77;12.87;;;4.50;74.20;;;;;;5058739;28;20066;-70
2021/12/11 02:06:09;;;;;;;20.60;13.00;;;4.50;74.20;;;;;;5076402;28;20036;-70
2021/12/11 02:08:37;;;;;;;21.27;12.63;;;4.50;74.20;;;;;;5074127;28;20449;-71
2021/12/11 02:11:16;;;;;;;19.67;12.37;;;4.50;74.20;;;;;;5075333;28;20036;-70
2021/12/11 02:13:52;;;;;;;18.53;12.53;;;4.50;74.20;;;;;;5074905;28;20416;-70
2021/12/11 02:16:27;;;;;;;21.40;12.53;;;4.50;74.20;;;;;;5075366;28;20030;-70
2021/12/11 02:18:59;;;;;;;21.70;13.17;;;4.50;74.30;;;;;;5075884;28;20043;-70
2021/12/11 02:21:29;;;;;;;;;;;4.50;74.30;;;;;;5075446;28;20458;-71
2021/12/11 02:23:58;;;;;;;19.97;12.43;;;4.40;74.20;;;;;;5076487;28;19908;-71
2021/12/11 02:26:26;;;;;;;17.93;11.73;;;4.40;74.30;;;;;;5054922;28;20059;-70
2021/12/11 02:29:16;;;;;;;20.83;12.20;;;4.40;74.40;;;;;;5075240;28;20039;-70
2021/12/11 02:32:07;;;;;;;20.43;12.80;;;4.40;74.40;;;;;;5069855;28;20032;-70
2021/12/11 02:34:42;;;;;;;19.02;11.88;;;4.40;74.30;;;;;;5091447;28;20041;-70
2021/12/11 02:37:20;;;;;;;17.67;11.23;;;4.40;74.40;;;;;;5084276;28;20357;-70
2021/12/11 02:39:55;;;;;;;17.80;12.37;;;4.40;74.40;;;;;;5075081;28;20432;-70
2021/12/11 02:42:37;;;;;;;19.20;12.90;;;4.40;74.30;;;;;;5076133;28;20028;-70
2021/12/11 02:45:10;;;;;;;19.10;12.67;;;4.40;74.30;;;;;;5075951;28;20036;-70
2021/12/11 02:47:46;;;;;;;18.47;12.30;;;4.40;74.40;;;;;;5054814;28;20076;-70
2021/12/11 02:50:42;;;;;;;19.50;12.60;;;4.40;74.40;;;;;;5071511;28;20028;-70
2021/12/11 02:53:23;;;;;;;18.60;12.30;;;4.40;74.40;;;;;;5072823;28;20337;-70
2021/12/11 02:55:58;;;;;;;22.67;13.00;;;4.30;74.40;;;;;;5054962;28;20123;-70
2021/12/11 02:58:31;;;;;;;23.33;13.40;;;4.30;74.40;;;;;;5075684;28;20365;-70
2021/12/11 03:01:04;;;;;;;17.53;11.47;;;4.40;74.50;;;;;;5055166;28;20457;-70
2021/12/11 03:03:36;;;;;;;24.03;13.53;;;4.30;74.40;;;;;;5058133;28;20127;-71
2021/12/11 03:06:14;;;;;;;20.40;13.02;;;4.30;74.50;;;;;;5070683;28;20028;-70
2021/12/11 03:08:41;;;;;;;18.47;11.33;;;4.30;74.60;;;;;;5094624;28;20040;-70
2021/12/11 03:11:14;;;;;;;20.97;12.90;;;4.30;74.60;;;;;;5074238;28;20029;-71
2021/12/11 03:13:41;;;;;;;18.80;11.70;;;4.30;74.70;;;;;;5083367;28;20020;-70
2021/12/11 03:16:07;;;;;;;20.93;12.37;;;4.30;74.60;;;;;;5076010;28;20029;-70
2021/12/11 03:18:33;;;;;;;22.60;11.93;;;4.30;74.60;;;;;;5074404;28;20032;-70
2021/12/11 03:20:59;;;;;;;19.23;12.60;;;4.30;74.60;;;;;;5054204;28;20025;-70
2021/12/11 03:23:25;;;;;;;19.77;11.87;;;4.30;74.70;;;;;;5055274;28;20434;-71
2021/12/11 03:25:51;;;;;;;17.57;11.83;;;4.30;74.70;;;;;;5073865;28;20185;-70
2021/12/11 03:28:21;;;;;;;19.30;12.67;;;4.30;74.80;;;;;;5073941;28;20048;-70
2021/12/11 03:30:56;;;;;;;21.90;13.47;;;4.30;74.80;;;;;;5074931;28;20029;-70
2021/12/11 03:33:23;;;;;;;21.47;12.53;;;4.30;74.80;;;;;;5075358;28;20046;-70
2021/12/11 03:35:49;;;;;;;22.03;12.10;;;4.30;74.90;;;;;;5078623;28;20322;-70
2021/12/11 03:38:16;;;;;;;21.40;13.77;;;4.30;75.00;;;;;;5075021;28;20094;-70
2021/12/11 03:40:43;;;;;;;18.40;12.30;;;4.30;75.00;;;;;;5073787;28;20036;-70
2021/12/11 03:43:14;;;;;;;19.50;11.93;;;4.30;75.00;;;;;;5073678;28;20036;-70
2021/12/11 03:45:44;;;;;;;18.80;13.13;;;4.30;75.10;;;;;;5073662;28;20029;-70
2021/12/11 03:48:16;;;;;;;21.77;13.27;;;4.30;75.10;;;;;;5074234;28;20071;-71
2021/12/11 03:50:43;;;;;;;19.97;12.63;;;4.30;75.10;;;;;;5074192;28;20038;-70
2021/12/11 03:53:10;;;;;;;18.93;11.93;;;4.30;75.10;;;;;;5074789;28;20028;-70
2021/12/11 03:55:43;;;;;;;19.93;13.20;;;4.30;75.10;;;;;;5056526;28;20028;-70
2021/12/11 03:58:09;;;;;;;20.43;12.83;;;4.30;75.20;;;;;;5075091;28;20040;-70
2021/12/11 04:00:39;;;;;;;19.17;11.90;;;4.20;75.10;;;;;;5073456;28;20035;-70
2021/12/11 04:03:07;;;;;;;19.90;12.73;;;4.20;75.20;;;;;;5073481;28;20071;-70
2021/12/11 04:05:36;;;;;;;20.70;12.87;;;4.20;75.10;;;;;;5060317;28;20041;-70
2021/12/11 04:08:03;;;;;;;19.47;12.70;;;4.20;75.20;;;;;;5074495;28;20036;-70
2021/12/11 04:10:29;;;;;;;19.50;11.57;;;4.20;75.20;;;;;;5073083;28;20024;-70
2021/12/11 04:13:00;;;;;;;20.43;11.77;;;4.10;75.10;;;;;;5073897;28;20334;-70
2021/12/11 04:15:27;;;;;;;18.50;11.23;;;4.10;75.10;;;;;;5073121;28;20024;-70
2021/12/11 04:17:54;;;;;;;20.53;12.17;;;4.10;75.20;;;;;;5073461;28;20373;-70
2021/12/11 04:20:22;;;;;;;21.80;12.80;;;4.10;75.20;;;;;;5073108;28;20499;-70
2021/12/11 04:22:47;;;;;;;21.43;12.27;;;4.10;75.30;;;;;;5056719;28;20353;-70
2021/12/11 04:25:17;;;;;;;22.07;12.10;;;4.10;75.30;;;;;;5072622;28;20043;-70
2021/12/11 04:27:44;;;;;;;22.50;12.23;;;4.10;75.30;;;;;;5054064;28;20052;-70
2021/12/11 04:30:11;;;;;;;18.30;12.17;;;4.10;75.30;;;;;;5054188;28;20068;-70
2021/12/11 04:32:38;;;;;;;22.00;12.97;;;4.10;75.30;;;;;;5074222;28;20368;-70
2021/12/11 04:35:07;;;;;;;19.03;12.57;;;4.10;75.40;;;;;;5080436;28;20048;-71
2021/12/11 04:37:34;;;;;;;21.87;12.60;;;4.10;75.50;;;;;;5036572;28;20033;-70
2021/12/11 04:40:09;;;;;;;21.23;12.80;;;4.10;75.40;;;;;;5053252;28;20090;-70
2021/12/11 04:45:18;;;;;;;17.33;11.03;;;4.00;75.50;;;;;;5072345;28;20031;-70
2021/12/11 04:50:22;;;;;;;18.47;12.20;;;4.00;75.50;;;;;;5054064;28;19990;-70
2021/12/11 04:52:54;;;;;;;22.30;12.10;;;4.00;75.70;;;;;;5066759;28;20111;-70
2021/12/11 05:11:54;;;;;;;22.07;14.13;;;4.20;76.10;;;;;;5015131;28;20072;-70
2021/12/11 05:14:23;;;;;;;21.90;13.10;;;4.20;76.10;;;;;;5010860;28;20034;-70
2021/12/11 05:16:49;;;;;;;20.40;13.00;;;4.20;76.20;;;;;;5009763;28;20029;-73
2021/12/11 05:19:15;;;;;;;19.33;12.27;;;4.20;76.20;;;;;;5016276;28;20034;-70
2021/12/11 05:21:41;;;;;;;22.83;12.67;;;4.20;76.20;;;;;;5010558;28;20104;-71
2021/12/11 05:24:08;;;;;;;20.30;13.57;;;4.20;76.30;;;;;;4997780;28;20120;-70
2021/12/11 05:26:36;;;;;;;24.17;13.47;;;4.30;76.40;;;;;;4984973;28;20459;-70
2021/12/11 05:29:02;;;;;;;24.33;13.87;;;4.30;76.40;;;;;;5016052;28;20062;-70
2021/12/11 05:31:28;;;;;;;23.20;13.73;;;4.30;76.40;;;;;;5012490;28;20022;-70
2021/12/11 05:33:54;;;;;;;26.70;14.23;;;4.30;76.50;;;;;;4980690;28;20364;-70
2021/12/11 05:36:20;;;;;;;19.83;14.03;;;4.30;76.60;;;;;;4997394;28;20446;-70
2021/12/11 05:38:48;;;;;;;23.23;13.43;;;4.30;76.70;;;;;;5015970;28;20458;-70
2021/12/11 05:41:17;;;;;;;23.80;14.20;;;4.30;76.70;;;;;;5014213;28;20042;-70
2021/12/11 05:43:43;;;;;;;22.97;13.63;;;4.30;76.80;;;;;;4982641;28;20340;-70
2021/12/11 05:46:11;;;;;;;23.30;13.77;;;4.30;76.80;;;;;;5001574;28;20041;-71
2021/12/11 05:48:36;;;;;;;23.17;13.13;;;4.30;76.90;;;;;;5076669;28;20032;-70
2021/12/11 05:51:07;;;;;;;22.17;14.03;;;4.40;77.00;;;;;;5076133;28;20025;-70
2021/12/11 05:53:34;;;;;;;19.95;12.82;;;4.40;77.00;;;;;;5075577;28;20128;-71
2021/12/11 05:56:07;;;;;;;25.47;14.73;;;4.40;77.00;;;;;;5076756;28;20060;-70
2021/12/11 05:58:46;;;;;;;22.70;14.47;;;4.40;77.10;;;;;;5075771;28;20043;-70
2021/12/11 06:01:16;;;;;;;21.30;13.57;;;4.40;77.20;;;;;;5076916;28;20035;-70
2021/12/11 06:03:42;;;;;;;23.23;13.93;;;4.40;77.20;;;;;;5076322;28;20043;-70
2021/12/11 06:06:07;;;;;;;26.33;14.87;;;4.40;77.20;;;;;;5075478;28;20040;-70
2021/12/11 06:08:33;;;;;;;22.90;13.77;;;4.40;77.20;;;;;;5075094;28;20113;-70
2021/12/11 06:11:00;;;;;;;24.17;13.87;;;4.40;77.20;;;;;;5076604;28;20365;-71
2021/12/11 06:13:28;;;;;;;24.27;14.23;;;4.40;77.90;;;;;;5074362;28;20029;-70
2021/12/11 06:15:55;;;;;;;29.97;14.37;;;4.40;77.10;;;;;;5076686;28;20032;-70
2021/12/11 06:18:21;;;;;;;29.17;14.73;;;4.40;77.30;;;;;;5082180;28;20024;-70
2021/12/11 06:20:48;;;;;;;28.73;15.33;;;4.50;77.30;;;;;;5075971;28;20051;-70
2021/12/11 06:23:15;;;;;;;24.87;14.43;;;4.50;77.40;;;;;;5075230;28;20149;-70
2021/12/11 06:25:41;;;;;;;27.50;16.27;;;4.50;77.40;;;;;;5075051;28;20036;-70
2021/12/11 06:28:07;;;;;;;24.43;13.83;;;4.50;77.40;;;;;;5083702;28;20036;-71
2021/12/11 06:30:35;;;;;;;24.57;14.33;;;4.50;77.50;;;;;;5075124;28;20494;-71
2021/12/11 06:33:01;;;;;;;25.20;14.23;;;4.50;77.50;;;;;;5076020;28;20107;-71
2021/12/11 06:35:43;;;;;;;25.50;14.80;;;4.50;77.60;;;;;;5074735;28;20036;-71
2021/12/11 06:38:12;;;;;;;25.67;15.00;;;4.50;77.70;;;;;;5053828;28;20029;-71
2021/12/11 06:40:38;;;;;;;26.10;13.73;;;4.50;77.70;;;;;;5075004;28;20040;-71
2021/12/11 06:43:04;;;;;;;25.07;14.40;;;4.50;77.70;;;;;;5075368;28;20024;-71
2021/12/11 06:45:30;;;;;;;25.87;14.53;;;4.60;77.80;;;;;;5075853;28;20039;-71
2021/12/11 06:47:56;;;;;;;22.30;13.60;;;4.60;77.80;;;;;;5075632;28;20028;-70
2021/12/11 06:50:22;;;;;;;24.10;14.47;;;4.60;77.80;;;;;;5075765;28;20020;-70
2021/12/11 06:52:49;;;;;;;26.60;14.83;;;4.60;77.80;;;;;;5074432;28;20028;-71
2021/12/11 06:55:17;;;;;;;21.00;13.40;;;4.60;77.80;;;;;;5075838;28;20038;-71
2021/12/11 06:57:44;;;;;;;23.23;13.40;;;4.60;77.80;;;;;;5074529;28;20368;-70
2021/12/11 07:00:11;;;;;;;26.43;14.70;;;4.60;77.80;;;;;;5074831;28;20029;-71
2021/12/11 07:02:36;;;;;;;22.00;14.23;;;4.60;77.80;;;;;;5075000;28;20067;-71
2021/12/11 07:05:04;;;;;;;21.50;13.23;;;4.60;77.90;;;;;;5076285;28;20064;-71
2021/12/11 07:07:33;;;;;;;21.90;13.57;;;4.60;77.90;;;;;;5076643;28;20031;-71
2021/12/11 07:10:01;;;;;;;23.07;13.50;;;4.60;77.90;;;;;;5069271;28;20036;-71
2021/12/11 07:12:27;;;;;;;23.63;15.17;;;4.60;77.90;;;;;;5058126;28;20434;-71
2021/12/11 07:14:53;;;;;;;23.07;13.40;;;4.60;77.90;;;;;;5076110;28;20040;-70
2021/12/11 07:17:21;;;;;;;24.77;14.37;;;4.60;77.90;;;;;;5076103;28;20029;-71
2021/12/11 07:19:47;;;;;;;26.07;14.70;;;4.60;78.00;;;;;;5058319;28;20415;-71
2021/12/11 07:22:14;;;;;;;24.60;14.70;;;4.70;78.10;;;;;;5075863;28;20024;-71
2021/12/11 07:24:51;;;;;;;23.70;14.80;;;4.70;78.10;;;;;;5058133;28;20033;-70
2021/12/11 07:27:18;;;;;;;24.67;14.03;;;4.70;78.10;;;;;;5075260;28;20094;-70
2021/12/11 07:29:44;;;;;;;22.87;14.20;;;4.70;78.10;;;;;;5075415;28;20052;-70
2021/12/11 07:32:11;;;;;;;24.67;15.23;;;4.70;78.10;;;;;;5075237;28;20033;-70
2021/12/11 07:34:37;;;;;;;21.77;13.27;;;4.70;78.10;;;;;;5075275;28;20044;-70
2021/12/11 07:37:04;;;;;;;25.60;14.90;;;4.70;78.10;;;;;;5075528;28;20034;-71
2021/12/11 07:39:30;;;;;;;24.17;12.67;;;4.80;78.20;;;;;;5073407;28;20029;-70
2021/12/11 07:41:56;;;;;;;23.10;13.13;;;4.80;78.20;;;;;;5057284;28;20024;-70
2021/12/11 07:44:22;;;;;;;22.70;14.43;;;4.80;78.20;;;;;;5073791;28;20106;-70
2021/12/11 07:46:49;;;;;;;23.37;14.33;;;4.80;78.30;;;;;;5074186;28;20028;-71
2021/12/11 07:49:15;;;;;;;23.90;14.60;;;4.70;78.30;;;;;;5056974;28;20403;-71
2021/12/11 07:51:41;;;;;;;24.53;15.33;;;4.70;78.30;;;;;;5074082;28;20024;-71
2021/12/11 07:54:08;;;;;;;28.37;15.23;;;4.80;78.40;;;;;;5073298;28;20578;-71
2021/12/11 07:56:35;;;;;;;22.17;13.10;;;4.80;78.40;;;;;;5071368;28;20111;-72
2021/12/11 07:59:03;;;;;;;21.87;14.60;;;4.80;78.40;;;;;;5072930;28;20024;-71
2021/12/11 08:01:30;;;;;;;23.57;15.70;;;4.80;79.00;;;;;;5055953;28;20350;-71
2021/12/11 08:03:59;;;;;;;20.63;13.17;;;4.80;78.40;;;;;;5075793;28;20035;-70
2021/12/11 08:06:25;;;;;;;20.67;12.67;;;4.80;78.40;;;;;;5076797;28;20056;-69
2021/12/11 08:08:51;;;;;;;25.83;14.63;;;4.80;78.40;;;;;;5057123;28;20052;-71
2021/12/11 08:11:19;;;;;;;24.70;15.70;;;4.80;78.40;;;;;;5066782;28;20029;-71
2021/12/11 08:13:48;;;;;;;23.33;14.27;;;4.80;78.40;;;;;;5058987;28;20017;-71
2021/12/11 08:16:19;;;;;;;26.30;16.07;;;4.80;78.50;;;;;;5072323;28;20039;-70
2021/12/11 08:18:45;;;;;;;26.08;15.70;;;4.90;78.50;;;;;;5056145;28;20020;-70
2021/12/11 08:21:11;;;;;;;24.37;15.23;;;4.80;78.50;;;;;;5073265;28;20024;-71
2021/12/11 08:23:43;;;;;;;22.10;14.10;;;4.90;78.50;;;;;;5073015;28;20366;-71
2021/12/11 08:26:10;;;;;;;24.57;15.53;;;4.90;78.50;;;;;;5073242;28;20457;-70
2021/12/11 08:28:36;;;;;;;25.87;15.13;;;4.90;78.50;;;;;;5071941;28;20025;-70
2021/12/11 08:31:02;;;;;;;20.63;13.43;;;4.90;78.50;;;;;;5073320;28;20413;-71
2021/12/11 08:33:28;;;;;;;24.63;15.73;;;4.90;78.50;;;;;;5055662;28;20028;-71
2021/12/11 08:35:55;;;;;;;26.30;16.07;;;4.90;78.50;;;;;;5072427;28;20028;-70
2021/12/11 08:38:21;;;;;;;22.77;13.23;;;5.00;78.60;;;;;;5071144;28;20078;-71
2021/12/11 08:40:52;;;;;;;21.57;13.90;;;5.00;78.60;;;;;;5071089;28;20380;-71
2021/12/11 08:43:20;;;;;;;19.67;12.60;;;5.00;78.50;;;;;;5070525;28;20035;-70
2021/12/11 08:46:00;;;;;;;23.60;14.93;;;5.00;78.50;;;;;;5052804;28;20161;-70
2021/12/11 08:48:28;;;;;;;24.47;14.60;;;5.00;78.60;;;;;;5072063;28;20024;-70
2021/12/11 08:51:01;;;;;;;24.47;15.47;;;5.00;78.60;;;;;;5071792;28;20021;-72
2021/12/11 08:53:27;;;;;;;27.97;17.07;;;5.10;78.70;;;;;;5072517;28;20036;-70
2021/12/11 08:55:55;;;;;;;24.67;15.73;;;5.10;78.70;;;;;;5072346;28;20029;-71
2021/12/11 08:58:23;;;;;;;25.83;15.67;;;5.10;78.70;;;;;;5072165;28;20105;-71
2021/12/11 09:01:04;;;;;;;21.67;14.37;;;5.10;78.70;;;;;;5072757;28;20090;-71
2021/12/11 09:03:39;;;;;;;21.47;13.60;;;5.20;78.80;;;;;;5074393;28;20032;-71
2021/12/11 09:06:22;;;;;;;24.27;15.37;;;5.10;78.70;;;;;;5073454;28;20024;-71
2021/12/11 09:08:50;;;;;;;23.43;14.90;;;5.10;78.70;;;;;;5074022;28;20046;-71
2021/12/11 09:11:26;;;;;;;22.70;14.40;;;5.20;78.70;;;;;;5072691;28;20067;-72
2021/12/11 09:14:12;;;;;;;26.63;15.57;;;5.20;78.70;;;;;;5073685;28;20136;-72
2021/12/11 09:16:38;;;;;;;25.20;16.20;;;5.20;78.70;;;;;;5074230;28;20411;-71
2021/12/11 09:19:15;;;;;;;26.07;15.77;;;5.20;79.40;;;;;;5074459;28;20029;-71
2021/12/11 09:22:07;;;;;;;28.13;16.00;;;5.20;78.80;;;;;;5074361;28;20032;-72
2021/12/11 09:24:40;;;;;;;24.75;14.68;;;5.30;78.90;;;;;;5074438;28;20067;-71
2021/12/11 09:27:16;;;;;;;26.70;15.73;;;5.30;78.80;;;;;;5072211;28;20044;-71
2021/12/11 09:30:13;;;;;;;27.60;17.20;;;5.40;78.90;;;;;;5088181;28;20100;-71
2021/12/11 09:32:51;;;;;;;26.93;16.60;;;5.40;78.80;;;;;;5094372;28;20032;-71
2021/12/11 09:35:33;;;;;;;31.07;15.83;;;5.50;78.90;;;;;;5094388;28;20488;-71
2021/12/11 09:38:25;;;;;;;24.60;15.70;;;5.50;78.90;;;;;;5093512;28;20044;-71
2021/12/11 09:40:57;;;;;;;27.03;16.53;;;5.50;78.80;;;;;;5072729;28;20032;-71
2021/12/11 09:43:46;;;;;;;25.67;14.85;;;5.60;78.90;;;;;;5074055;28;20043;-71
2021/12/11 09:46:16;;;;;;;24.17;14.33;;;5.60;79.50;;;;;;5073229;28;20036;-71
2021/12/11 09:48:44;;;;;;;23.67;14.83;;;5.60;78.90;;;;;;5077224;28;20127;-71
2021/12/11 09:51:15;;;;;;;23.50;14.63;;;5.60;79.00;;;;;;5077344;28;20071;-71
2021/12/11 09:53:49;;;;;;;25.42;15.50;;;5.60;79.00;;;;;;5077336;28;20024;-71
2021/12/11 09:56:20;;;;;;;25.33;14.93;;;5.70;79.10;;;;;;5077639;28;20024;-71
2021/12/11 09:58:45;;;;;;;28.40;16.57;;;5.70;79.20;;;;;;5083589;28;20436;-71
2021/12/11 10:01:14;;;;;;;26.43;16.53;;;5.70;79.20;;;;;;5077882;28;20044;-71
2021/12/11 10:03:48;;;;;;;25.63;16.43;;;5.80;79.30;;;;;;5054470;28;20029;-71
2021/12/11 10:06:38;;;;;;;25.17;15.70;;;5.80;79.40;;;;;;5072301;28;20086;-71
2021/12/11 10:09:18;;;;;;;27.60;16.03;;;5.80;79.40;;;;;;5076803;28;20032;-71
2021/12/11 10:12:05;;;;;;;24.03;14.80;;;5.90;79.40;;;;;;5061518;28;20020;-71
2021/12/11 10:14:38;;;;;;;26.53;16.70;;;5.90;79.40;;;;;;5055642;28;20128;-72
2021/12/11 10:17:12;;;;;;;29.37;16.07;;;6.00;79.50;;;;;;5102514;28;20477;-72
2021/12/11 10:19:40;;;;;;;27.63;17.23;;;6.00;79.50;;;;;;5060010;28;20396;-72
2021/12/11 10:22:21;;;;;;;25.83;15.93;;;6.00;79.50;;;;;;5072564;28;20037;-71
2021/12/11 10:24:51;;;;;;;30.52;17.70;;;6.00;79.50;;;;;;5069262;28;20038;-72
2021/12/11 10:27:20;;;;;;;27.77;15.53;;;6.10;79.50;;;;;;5065648;28;20041;-71
2021/12/11 10:29:46;;;;;;;26.63;16.23;;;6.10;79.50;;;;;;5074492;28;20311;-71
2021/12/11 10:32:18;;;;;;;28.97;16.37;;;6.10;79.50;;;;;;5078478;28;20024;-72
2021/12/11 10:34:49;;;;;;;25.43;14.93;;;6.20;79.60;;;;;;5074801;28;20020;-71
2021/12/11 10:37:18;;;;;;;26.23;15.67;;;6.20;79.50;;;;;;5075595;28;20176;-72
2021/12/11 10:39:49;;;;;;;28.60;17.20;;;6.20;79.50;;;;;;5073761;28;20056;-71
2021/12/11 10:42:16;;;;;;;24.80;15.77;;;6.20;79.50;;;;;;5074025;28;20085;-71
2021/12/11 10:44:47;;;;;;;27.50;17.17;;;6.20;79.40;;;;;;5073231;28;20040;-72
2021/12/11 10:47:15;;;;;;;32.65;16.20;;;6.30;79.50;;;;;;5072128;28;20032;-70
2021/12/11 10:49:42;;;;;;;27.57;15.93;;;6.30;80.20;;;;;;5072312;28;20029;-71
2021/12/11 10:52:19;;;;;;;29.13;15.53;;;6.30;79.60;;;;;;5075178;28;20089;-72
2021/12/11 10:54:47;;;;;;;30.60;16.60;;;6.30;79.70;;;;;;5073198;28;20377;-72
2021/12/11 10:57:15;;;;;;;31.13;17.93;;;6.30;79.70;;;;;;5074011;28;20575;-72
2021/12/11 10:59:43;;;;;;;26.80;16.47;;;6.40;79.70;;;;;;5073656;28;20031;-71
2021/12/11 11:02:20;;;;;;;29.13;16.63;;;6.40;79.70;;;;;;5074289;28;20036;-71
2021/12/11 11:05:06;;;;;;;26.00;16.07;;;6.40;79.80;;;;;;5073217;28;20029;-71
2021/12/11 11:07:32;;;;;;;28.03;16.83;;;6.40;79.90;;;;;;5071493;28;20459;-72
2021/12/11 11:10:01;;;;;;;26.03;15.47;;;6.40;79.90;;;;;;5073641;28;20365;-71
2021/12/11 11:12:29;;;;;;;27.97;16.03;;;6.40;80.00;;;;;;5072781;28;20016;-71
2021/12/11 11:14:57;;;;;;;27.00;15.93;;;6.50;80.00;;;;;;5072612;28;20036;-72
2021/12/11 11:17:27;;;;;;;26.87;14.97;;;6.50;80.00;;;;;;5074012;28;20025;-71
2021/12/11 11:19:54;;;;;;;24.63;15.10;;;6.50;80.10;;;;;;5074773;28;20043;-72
2021/12/11 11:22:28;;;;;;;28.90;15.10;;;6.50;80.10;;;;;;5072491;28;20031;-71
2021/12/11 11:25:00;;;;;;;27.93;16.30;;;6.50;80.20;;;;;;5073386;28;20032;-72
2021/12/11 11:27:26;;;;;;;26.95;15.50;;;6.50;80.30;;;;;;5073217;28;20109;-71
2021/12/11 11:29:52;;;;;;;26.70;15.60;;;6.50;80.30;;;;;;5073397;28;20420;-72
2021/12/11 11:32:31;;;;;;;26.20;14.93;;;6.50;80.40;;;;;;5074251;28;20029;-72
2021/12/11 11:34:59;;;;;;;207.00;30.30;;;6.50;80.40;;;;;;5069017;28;20024;-72
2021/12/11 11:37:25;;;;;;;26.03;15.20;;;6.60;80.50;;;;;;5073473;28;20028;-72
2021/12/11 11:39:51;;;;;;;34.47;16.27;;;6.60;80.40;;;;;;5074239;28;20033;-72
2021/12/11 11:42:22;;;;;;;21.90;11.73;;;6.60;80.50;;;;;;5056532;28;20047;-72
2021/12/11 11:44:49;;;;;;;22.73;13.80;;;6.60;80.50;;;;;;5073330;28;20115;-72
2021/12/11 11:47:19;;;;;;;21.00;13.27;;;6.60;80.60;;;;;;5074229;28;20293;-72
2021/12/11 11:49:45;;;;;;;24.03;13.73;;;6.60;80.60;;;;;;5074118;28;20030;-72
2021/12/11 11:52:15;;;;;;;24.47;14.07;;;6.60;80.50;;;;;;5057384;28;20029;-72
2021/12/11 11:54:44;;;;;;;21.17;12.13;;;6.60;80.60;;;;;;5081194;28;20135;-72
2021/12/11 11:57:23;;;;;;;20.17;12.13;;;6.60;80.60;;;;;;5073178;28;20111;-72
2021/12/11 11:59:52;;;;;;;18.70;11.20;;;6.60;80.70;;;;;;5073532;28;20077;-72
2021/12/11 12:02:21;;;;;;;22.67;12.57;;;6.60;80.80;;;;;;5073432;28;20442;-72
2021/12/11 12:04:50;;;;;;;22.17;13.07;;;6.60;80.90;;;;;;5074535;28;20447;-72
2021/12/11 12:07:18;;;;;;;20.43;11.40;;;6.60;80.90;;;;;;5074612;28;20048;-72
2021/12/11 12:09:47;;;;;;;20.57;12.50;;;6.60;80.80;;;;;;5052634;28;20075;-72
2021/12/11 12:12:15;;;;;;;22.00;13.97;;;6.60;80.80;;;;;;5074010;28;20012;-72
2021/12/11 12:14:42;;;;;;;23.50;14.23;;;6.50;80.80;;;;;;5073010;28;20141;-72
2021/12/11 12:17:11;;;;;;;26.73;15.27;;;6.50;80.90;;;;;;5072663;28;20029;-72
2021/12/11 12:19:37;;;;;;;26.73;15.07;;;6.50;81.00;;;;;;5099329;28;20035;-72
2021/12/11 12:22:06;;;;;;;23.47;12.77;;;6.50;81.10;;;;;;5055371;28;20056;-72
2021/12/11 12:24:34;;;;;;;19.07;11.83;;;6.60;81.10;;;;;;5072828;28;20040;-72
2021/12/11 12:27:03;;;;;;;20.37;13.10;;;6.60;81.20;;;;;;5073875;28;20040;-71
2021/12/11 12:29:30;;;;;;;22.17;12.90;;;6.60;81.10;;;;;;5073577;28;20042;-71
2021/12/11 12:32:01;;;;;;;21.17;12.97;;;6.60;81.10;;;;;;5056837;28;20115;-71
2021/12/11 12:34:27;;;;;;;22.27;12.57;;;6.60;81.10;;;;;;5078112;28;20029;-71
2021/12/11 12:36:54;;;;;;;21.77;13.43;;;6.60;81.20;;;;;;5072941;28;20025;-71
2021/12/11 12:39:23;;;;;;;23.97;14.03;;;6.60;81.30;;;;;;5074068;28;20036;-71
2021/12/11 12:42:16;;;;;;;19.67;12.00;;;6.60;81.30;;;;;;5073039;28;20029;-72
2021/12/11 12:44:44;;;;;;;26.83;16.10;;;6.60;81.40;;;;;;5074273;28;20041;-72
2021/12/11 12:47:19;;;;;;;22.87;12.93;;;6.60;81.40;;;;;;5055624;28;20074;-72
2021/12/11 12:49:48;;;;;;;23.10;12.93;;;6.60;81.50;;;;;;5073051;28;20052;-71
2021/12/11 12:52:24;;;;;;;25.87;15.03;;;6.60;81.60;;;;;;5072766;28;20496;-71
2021/12/11 12:54:50;;;;;;;26.13;14.87;;;6.60;81.60;;;;;;5072821;28;20043;-72
2021/12/11 12:57:27;;;;;;;34.10;16.77;;;6.60;81.60;;;;;;5052600;28;20116;-71
2021/12/11 13:00:04;;;;;;;28.53;16.73;;;6.60;81.60;;;;;;5055556;28;20116;-71
2021/12/11 13:02:32;;;;;;;30.77;16.20;;;6.70;81.70;;;;;;5074168;28;20405;-72
2021/12/11 13:05:05;;;;;;;31.67;16.90;;;6.70;81.80;;;;;;5081269;28;20090;-72
2021/12/11 13:07:31;;;;;;;27.83;14.70;;;6.70;81.80;;;;;;5071740;28;20062;-72
2021/12/11 13:10:06;;;;;;;34.77;17.73;;;6.70;81.70;;;;;;5073370;28;20036;-72
2021/12/11 13:12:44;;;;;;;35.77;19.90;;;6.70;81.70;;;;;;5053805;28;20454;-71
2021/12/11 13:15:17;;;;;;;30.60;17.00;;;6.70;81.90;;;;;;5063845;28;20056;-72
2021/12/11 13:17:46;;;;;;;32.73;18.73;;;6.70;81.90;;;;;;5073109;28;20077;-71